createdAt,value
2018-06-18T00:00:23.040Z,77.71
2018-06-18T00:02:15.787Z,77.51
2018-06-18T00:03:15.723Z,77.80
2018-06-18T00:05:08.512Z,75.85
2018-06-18T00:06:08.435Z,76.42
2018-06-18T00:08:01.263Z,76.32
2018-06-18T00:09:01.171Z,77.29
2018-06-18T00:10:53.948Z,77.86
2018-06-18T00:11:53.912Z,79.88
2018-06-18T00:13:46.669Z,79.68
2018-06-18T00:14:46.593Z,80.35
2018-06-18T00:16:39.378Z,77.67
2018-06-18T00:17:39.319Z,76.42
2018-06-18T00:19:32.101Z,78.20
2018-06-18T00:20:32.031Z,81.08
2018-06-18T00:22:24.927Z,80.70
2018-06-18T00:23:24.756Z,79.26
2018-06-18T00:25:17.541Z,78.11
2018-06-18T00:26:17.470Z,78.78
2018-06-18T00:28:10.245Z,81.66
2018-06-18T00:29:10.183Z,82.32
2018-06-18T00:31:02.965Z,80.32
2018-06-18T00:32:02.885Z,81.08
2018-06-18T00:33:55.669Z,79.45
2018-06-18T00:34:55.598Z,80.03
2018-06-18T00:36:48.378Z,78.78
2018-06-18T00:37:48.318Z,77.97
2018-06-18T00:39:41.111Z,78.74
2018-06-18T00:40:41.036Z,78.45
2018-06-18T00:42:33.815Z,80.08
2018-06-18T00:43:33.761Z,80.27
2018-06-18T00:45:26.537Z,81.43
2018-06-18T00:46:26.460Z,81.62
2018-06-18T00:48:19.288Z,81.33
2018-06-18T00:49:19.183Z,80.85
2018-06-18T00:51:11.988Z,82.76
2018-06-18T00:52:11.927Z,81.43
2018-06-18T00:54:04.707Z,80.47
2018-06-18T00:55:04.636Z,79.60
2018-06-18T00:56:57.422Z,83.15
2018-06-18T00:57:57.360Z,83.53
2018-06-18T00:59:50.167Z,82.29
2018-06-18T01:00:50.087Z,82.57
2018-06-18T01:02:42.852Z,79.51
2018-06-18T01:03:42.798Z,79.41
2018-06-18T01:05:35.587Z,80.76
2018-06-18T01:06:35.505Z,83.82
2018-06-18T01:08:28.362Z,81.38
2018-06-18T01:09:28.216Z,82.73
2018-06-18T01:11:21.034Z,82.92
2018-06-18T01:12:20.942Z,81.77
2018-06-18T01:14:13.715Z,84.30
2018-06-18T01:15:13.652Z,84.58
2018-06-18T01:17:06.438Z,84.20
2018-06-18T01:18:06.366Z,83.92
2018-06-18T01:19:59.140Z,83.44
2018-06-18T01:20:59.074Z,83.05
2018-06-18T01:22:51.845Z,82.00
2018-06-18T01:23:51.779Z,82.09
2018-06-18T01:25:44.572Z,82.06
2018-06-18T01:26:44.491Z,81.29
2018-06-18T01:28:37.318Z,82.15
2018-06-18T01:29:37.205Z,83.59
2018-06-18T01:31:29.999Z,83.59
2018-06-18T01:32:29.926Z,83.01
2018-06-18T01:34:22.692Z,83.87
2018-06-18T01:35:22.624Z,83.78
2018-06-18T01:37:15.403Z,84.26
2018-06-18T01:38:15.325Z,83.11
2018-06-18T01:40:08.127Z,83.39
2018-06-18T01:41:08.050Z,82.43
2018-06-18T01:43:00.843Z,85.02
2018-06-18T01:44:00.772Z,84.35
2018-06-18T01:45:53.563Z,84.74
2018-06-18T01:46:53.483Z,85.41
2018-06-18T01:48:46.301Z,86.55
2018-06-18T01:49:46.198Z,85.83
2018-06-18T01:51:38.990Z,84.01
2018-06-18T01:52:38.926Z,84.01
2018-06-18T01:54:31.701Z,83.72
2018-06-18T01:55:31.637Z,84.20
2018-06-18T01:57:24.416Z,83.97
2018-06-18T01:58:24.353Z,85.31
2018-06-18T02:00:17.131Z,86.55
2018-06-18T02:01:17.076Z,85.12
2018-06-18T02:03:09.856Z,84.97
2018-06-18T02:04:09.801Z,87.37
2018-06-18T02:06:02.571Z,85.93
2018-06-18T02:07:02.497Z,85.54
2018-06-18T02:08:55.275Z,84.97
2018-06-18T02:09:55.210Z,86.60
2018-06-18T02:11:47.999Z,84.39
2018-06-18T02:12:47.912Z,84.30
2018-06-18T02:14:40.693Z,84.11
2018-06-18T02:15:40.634Z,82.82
2018-06-18T02:17:33.417Z,83.01
2018-06-18T02:18:33.342Z,83.20
2018-06-18T02:20:26.108Z,83.93
2018-06-18T02:21:26.052Z,84.41
2018-06-18T02:23:18.841Z,84.98
2018-06-18T02:24:18.780Z,85.94
2018-06-18T02:26:11.573Z,85.89
2018-06-18T02:27:11.476Z,86.22
2018-06-18T02:29:04.259Z,85.80
2018-06-18T02:30:04.193Z,85.80
2018-06-18T02:31:56.980Z,86.57
2018-06-18T02:32:57.028Z,85.99
2018-06-18T02:34:49.700Z,87.23
2018-06-18T02:35:49.645Z,88.00
2018-06-18T02:37:42.540Z,89.15
2018-06-18T02:38:42.474Z,87.52
2018-06-18T02:40:35.345Z,88.29
2018-06-18T02:41:35.220Z,87.04
2018-06-18T02:43:28.003Z,86.66
2018-06-18T02:44:27.934Z,86.08
2018-06-18T02:46:20.708Z,86.85
2018-06-18T02:47:20.645Z,86.57
2018-06-18T02:49:13.416Z,88.09
2018-06-18T02:50:13.340Z,88.76
2018-06-18T02:52:06.134Z,89.15
2018-06-18T02:53:06.060Z,87.90
2018-06-18T02:54:58.828Z,88.19
2018-06-18T02:55:58.765Z,87.71
2018-06-18T02:57:51.542Z,87.23
2018-06-18T02:58:51.471Z,87.33
2018-06-18T03:00:44.250Z,86.76
2018-06-18T03:01:44.187Z,87.14
2018-06-18T03:03:36.998Z,87.33
2018-06-18T03:04:36.906Z,87.23
2018-06-18T03:06:29.667Z,87.62
2018-06-18T03:07:29.619Z,87.14
2018-06-18T03:09:22.397Z,88.76
2018-06-18T03:10:22.321Z,88.67
2018-06-18T03:12:15.088Z,86.94
2018-06-18T03:13:15.026Z,87.62
2018-06-18T03:15:07.809Z,87.37
2018-06-18T03:16:07.728Z,86.99
2018-06-18T03:18:00.513Z,86.22
2018-06-18T03:19:00.434Z,86.22
2018-06-18T03:20:53.212Z,88.28
2018-06-18T03:21:53.147Z,87.32
2018-06-18T03:23:45.921Z,90.09
2018-06-18T03:24:45.852Z,89.04
2018-06-18T03:26:38.617Z,90.09
2018-06-18T03:27:38.560Z,87.70
2018-06-18T03:29:31.337Z,86.74
2018-06-18T03:30:31.262Z,88.13
2018-06-18T03:32:24.027Z,86.69
2018-06-18T03:33:23.966Z,85.93
2018-06-18T03:35:16.758Z,88.61
2018-06-18T03:36:16.680Z,88.13
2018-06-18T03:38:09.450Z,86.79
2018-06-18T03:39:09.389Z,87.46
2018-06-18T03:41:02.176Z,88.51
2018-06-18T03:42:02.097Z,87.94
2018-06-18T03:43:54.875Z,87.98
2018-06-18T03:44:54.798Z,87.65
2018-06-18T03:46:47.560Z,85.83
2018-06-18T03:47:47.499Z,88.42
2018-06-18T03:49:40.301Z,87.37
2018-06-18T03:50:40.203Z,89.04
2018-06-18T03:52:32.983Z,89.61
2018-06-18T03:53:32.918Z,89.80
2018-06-18T03:55:25.702Z,89.23
2018-06-18T03:56:25.627Z,89.32
2018-06-18T03:58:18.391Z,86.16
2018-06-18T03:59:18.336Z,85.93
2018-06-18T04:01:11.111Z,86.69
2018-06-18T04:02:11.042Z,88.99
2018-06-18T04:04:03.812Z,87.17
2018-06-18T04:05:03.746Z,88.51
2018-06-18T04:06:56.544Z,87.94
2018-06-18T04:07:56.466Z,90.53
2018-06-18T04:09:49.285Z,91.24
2018-06-18T04:10:49.182Z,88.17
2018-06-18T04:12:41.964Z,88.46
2018-06-18T04:13:41.886Z,88.75
2018-06-18T04:15:34.689Z,86.35
2018-06-18T04:16:34.612Z,86.54
2018-06-18T04:18:27.462Z,87.27
2018-06-18T04:19:27.424Z,86.83
2018-06-18T04:21:20.193Z,87.41
2018-06-18T04:22:20.117Z,88.65
2018-06-18T04:24:12.908Z,88.94
2018-06-18T04:25:12.834Z,89.42
2018-06-18T04:27:05.627Z,85.58
2018-06-18T04:28:05.558Z,85.58
2018-06-18T04:29:58.319Z,88.70
2018-06-18T04:30:58.309Z,88.02
2018-06-18T04:32:51.052Z,90.37
2018-06-18T04:33:50.987Z,88.07
2018-06-18T04:35:43.807Z,87.78
2018-06-18T04:36:43.720Z,87.25
2018-06-18T04:38:36.503Z,86.81
2018-06-18T04:39:36.433Z,86.14
2018-06-18T04:41:29.213Z,83.49
2018-06-18T04:42:29.153Z,83.34
2018-06-18T04:44:21.946Z,82.37
2018-06-18T04:45:21.886Z,78.48
2018-06-18T04:47:14.694Z,81.21
2018-06-18T04:48:14.611Z,81.39
2018-06-18T04:50:07.381Z,75.65
2018-06-18T04:51:07.323Z,75.36
2018-06-18T04:53:00.126Z,80.19
2018-06-18T04:54:00.046Z,80.10
2018-06-18T04:55:52.818Z,80.73
2018-06-18T04:56:52.745Z,81.79
2018-06-18T04:58:45.573Z,82.27
2018-06-18T04:59:45.462Z,82.94
2018-06-18T05:01:38.248Z,83.52
2018-06-18T05:02:38.180Z,83.62
2018-06-18T05:04:30.965Z,80.73
2018-06-18T05:05:30.889Z,81.94
2018-06-18T05:07:23.718Z,83.62
2018-06-18T05:08:23.632Z,82.85
2018-06-18T05:10:16.392Z,83.04
2018-06-18T05:11:16.358Z,81.40
2018-06-18T05:13:09.162Z,82.85
2018-06-18T05:14:09.054Z,83.04
2018-06-18T05:16:01.823Z,82.37
2018-06-18T05:17:01.764Z,83.62
2018-06-18T05:18:54.558Z,82.85
2018-06-18T05:19:54.483Z,83.42
2018-06-18T05:21:47.309Z,83.58
2018-06-18T05:22:47.221Z,84.25
2018-06-18T05:24:39.998Z,84.06
2018-06-18T05:25:39.909Z,84.06
2018-06-18T05:27:32.670Z,84.06
2018-06-18T05:28:32.608Z,83.58
2018-06-18T05:30:25.417Z,84.44
2018-06-18T05:31:25.341Z,82.90
2018-06-18T05:33:18.146Z,86.08
2018-06-18T05:34:18.079Z,85.11
2018-06-18T05:36:10.840Z,84.44
2018-06-18T05:37:10.776Z,84.16
2018-06-18T05:39:03.572Z,84.19
2018-06-18T05:40:03.521Z,83.48
2018-06-18T05:41:56.298Z,82.23
2018-06-18T05:42:56.238Z,84.29
2018-06-18T05:44:49.025Z,84.34
2018-06-18T05:45:48.955Z,84.29
2018-06-18T05:47:41.726Z,82.90
2018-06-18T05:48:41.661Z,83.33
2018-06-18T05:50:34.536Z,83.33
2018-06-18T05:51:34.385Z,83.62
2018-06-18T05:53:27.163Z,83.62
2018-06-18T05:54:27.128Z,83.00
2018-06-18T05:56:19.907Z,82.81
2018-06-18T05:57:19.803Z,83.58
2018-06-18T05:59:12.597Z,84.44
2018-06-18T06:00:12.524Z,85.11
2018-06-18T06:02:05.300Z,83.19
2018-06-18T06:03:05.233Z,83.96
2018-06-18T06:04:58.028Z,83.91
2018-06-18T06:05:57.986Z,83.77
2018-06-18T06:07:50.792Z,82.27
2018-06-18T06:08:50.707Z,82.56
2018-06-18T06:10:43.500Z,80.44
2018-06-18T06:11:43.436Z,82.75
2018-06-18T06:13:36.222Z,83.33
2018-06-18T06:14:36.152Z,82.70
2018-06-18T06:16:28.945Z,81.63
2018-06-18T06:17:28.871Z,82.60
2018-06-18T06:19:21.664Z,82.06
2018-06-18T06:20:21.607Z,80.81
2018-06-18T06:22:14.393Z,78.59
2018-06-18T06:23:14.320Z,80.94
2018-06-18T06:25:07.101Z,79.79
2018-06-18T06:26:07.029Z,77.03
2018-06-18T06:27:59.829Z,78.42
2018-06-18T06:28:59.748Z,78.03
2018-06-18T06:30:52.551Z,74.41
2018-06-18T06:31:52.476Z,71.51
2018-06-18T06:33:45.255Z,73.54
2018-06-18T06:34:45.224Z,72.73
2018-06-18T06:36:38.005Z,71.67
2018-06-18T06:37:37.911Z,76.20
2018-06-18T06:39:30.704Z,75.40
2018-06-18T06:40:30.624Z,77.90
2018-06-18T06:42:23.443Z,76.17
2018-06-18T06:43:23.359Z,78.09
2018-06-18T06:45:16.165Z,80.12
2018-06-18T06:46:16.089Z,78.77
2018-06-18T06:48:08.864Z,78.58
2018-06-18T06:49:08.788Z,78.67
2018-06-18T06:51:01.599Z,75.55
2018-06-18T06:52:01.517Z,78.15
2018-06-18T06:53:54.307Z,76.61
2018-06-18T06:54:54.240Z,77.19
2018-06-18T06:56:47.059Z,76.61
2018-06-18T06:57:46.953Z,77.38
2018-06-18T06:59:39.750Z,76.80
2018-06-18T07:00:39.686Z,77.58
2018-06-18T07:02:32.492Z,78.25
2018-06-18T07:03:32.404Z,77.76
2018-06-18T07:05:25.184Z,79.74
2018-06-18T07:06:25.120Z,79.16
2018-06-18T07:08:17.925Z,76.45
2018-06-18T07:09:17.841Z,75.92
2018-06-18T07:11:10.640Z,78.33
2018-06-18T07:12:10.555Z,75.05
2018-06-18T07:14:03.336Z,75.34
2018-06-18T07:15:03.276Z,73.35
2018-06-18T07:16:56.094Z,69.98
2018-06-18T07:17:56.001Z,72.69
2018-06-18T07:19:48.782Z,66.53
2018-06-18T07:20:48.723Z,66.56
2018-06-18T07:22:41.545Z,67.79
2018-06-18T07:23:41.484Z,66.40
2018-06-18T07:25:34.249Z,67.05
2018-06-18T07:26:34.189Z,65.66
2018-06-18T07:28:26.988Z,69.50
2018-06-18T07:29:26.916Z,69.31
2018-06-18T07:31:19.802Z,67.72
2018-06-18T07:32:19.638Z,67.79
2018-06-18T07:34:12.438Z,67.30
2018-06-18T07:35:12.390Z,68.43
2018-06-18T07:37:05.168Z,72.16
2018-06-18T07:38:05.091Z,72.42
2018-06-18T07:39:57.876Z,72.32
2018-06-18T07:40:57.819Z,73.63
2018-06-18T07:42:50.645Z,75.18
2018-06-18T07:43:50.556Z,73.35
2018-06-18T07:45:43.350Z,77.01
2018-06-18T07:46:43.277Z,71.09
2018-06-18T07:48:36.075Z,75.34
2018-06-18T07:49:36.001Z,76.20
2018-06-18T07:51:28.838Z,75.34
2018-06-18T07:52:28.740Z,74.27
2018-06-18T07:54:21.549Z,75.49
2018-06-18T07:55:21.476Z,74.52
2018-06-18T07:57:14.322Z,77.90
2018-06-18T07:58:14.240Z,76.07
2018-06-18T08:00:07.076Z,77.03
2018-06-18T08:01:07.014Z,74.62
2018-06-18T08:02:59.812Z,75.59
2018-06-18T08:03:59.761Z,74.24
2018-06-18T08:05:52.531Z,77.71
2018-06-18T08:06:52.458Z,75.49
2018-06-18T08:08:45.274Z,73.95
2018-06-18T08:09:45.307Z,73.95
2018-06-18T08:11:37.989Z,74.33
2018-06-18T08:12:37.935Z,75.20
2018-06-18T08:14:30.741Z,74.27
2018-06-18T08:15:30.672Z,76.88
2018-06-18T08:17:23.560Z,74.85
2018-06-18T08:18:23.482Z,74.66
2018-06-18T08:20:16.279Z,74.37
2018-06-18T08:21:16.211Z,72.92
2018-06-18T08:23:09.050Z,75.09
2018-06-18T08:24:08.929Z,73.54
2018-06-18T08:26:01.729Z,74.89
2018-06-18T08:27:01.718Z,71.32
2018-06-18T08:28:54.458Z,71.36
2018-06-18T08:29:54.388Z,74.21
2018-06-18T08:31:47.690Z,73.38
2018-06-18T08:32:47.620Z,70.78
2018-06-18T08:34:40.483Z,73.38
2018-06-18T08:35:40.376Z,72.22
2018-06-18T08:37:33.144Z,73.09
2018-06-18T08:38:33.085Z,71.16
2018-06-18T08:40:25.922Z,71.68
2018-06-18T08:41:25.848Z,71.48
2018-06-18T08:43:18.680Z,71.39
2018-06-18T08:44:18.718Z,71.48
2018-06-18T08:46:11.392Z,70.23
2018-06-18T08:47:11.334Z,71.30
2018-06-18T08:49:04.180Z,70.42
2018-06-18T08:50:04.073Z,70.14
2018-06-18T08:51:56.893Z,70.84
2018-06-18T08:52:56.830Z,70.07
2018-06-18T08:54:49.704Z,67.94
2018-06-18T08:55:49.598Z,68.95
2018-06-18T08:57:42.464Z,68.85
2018-06-18T08:58:42.399Z,69.14
2018-06-18T09:00:35.154Z,70.59
2018-06-18T09:01:35.078Z,67.21
2018-06-18T09:03:27.881Z,68.85
2018-06-18T09:04:27.827Z,69.04
2018-06-18T09:06:20.620Z,69.46
2018-06-18T09:07:20.553Z,69.66
2018-06-18T09:09:13.475Z,69.37
2018-06-18T09:10:13.412Z,70.04
2018-06-18T09:12:06.329Z,70.24
2018-06-18T09:13:06.239Z,69.17
2018-06-18T09:14:59.079Z,65.79
2018-06-18T09:15:59.031Z,68.01
2018-06-18T09:17:51.844Z,68.88
2018-06-18T09:18:51.792Z,69.79
2018-06-18T09:20:44.661Z,70.37
2018-06-18T09:21:44.584Z,68.24
2018-06-18T09:23:37.429Z,67.18
2018-06-18T09:24:37.352Z,67.66
2018-06-18T09:26:30.195Z,67.95
2018-06-18T09:27:30.170Z,65.34
2018-06-18T09:29:22.956Z,67.82
2018-06-18T09:30:22.840Z,67.14
2018-06-18T09:32:15.782Z,65.50
2018-06-18T09:33:15.647Z,67.14
2018-06-18T09:35:08.399Z,68.21
2018-06-18T09:36:08.331Z,67.05
2018-06-18T09:38:01.128Z,65.30
2018-06-18T09:39:01.112Z,64.82
2018-06-18T09:40:53.979Z,67.30
2018-06-18T09:41:53.854Z,66.43
2018-06-18T09:43:46.635Z,66.14
2018-06-18T09:44:46.681Z,64.40
2018-06-18T09:46:39.404Z,65.34
2018-06-18T09:47:39.365Z,66.75
2018-06-18T09:49:32.126Z,64.43
2018-06-18T09:50:32.061Z,69.08
2018-06-18T09:52:24.860Z,66.72
2018-06-18T09:53:24.815Z,65.95
2018-06-18T09:55:17.586Z,67.43
2018-06-18T09:56:17.551Z,65.40
2018-06-18T09:58:10.332Z,64.62
2018-06-18T09:59:10.267Z,64.53
2018-06-18T10:01:03.080Z,63.76
2018-06-18T10:02:03.013Z,63.85
2018-06-18T10:03:55.790Z,62.43
2018-06-18T10:04:55.739Z,64.37
2018-06-18T10:06:48.626Z,61.46
2018-06-18T10:07:48.473Z,60.59
2018-06-18T10:09:41.259Z,62.34
2018-06-18T10:10:41.239Z,60.43
2018-06-18T10:12:33.964Z,60.17
2018-06-18T10:13:33.883Z,59.42
2018-06-18T10:15:26.678Z,63.69
2018-06-18T10:16:26.619Z,59.91
2018-06-18T10:18:19.411Z,59.45
2018-06-18T10:19:19.346Z,56.41
2018-06-18T10:21:12.125Z,60.20
2018-06-18T10:22:12.067Z,59.49
2018-06-18T10:24:04.848Z,59.23
2018-06-18T10:25:04.781Z,59.20
2018-06-18T10:26:57.620Z,58.36
2018-06-18T10:27:57.547Z,58.45
2018-06-18T10:29:50.341Z,63.23
2018-06-18T10:30:50.286Z,57.90
2018-06-18T10:32:43.087Z,57.61
2018-06-18T10:33:43.002Z,54.90
2018-06-18T10:35:35.939Z,56.54
2018-06-18T10:36:35.831Z,58.39
2018-06-18T10:38:28.585Z,56.37
2018-06-18T10:39:28.508Z,58.03
2018-06-18T10:41:21.407Z,58.67
2018-06-18T10:42:21.251Z,57.06
2018-06-18T10:44:14.050Z,57.90
2018-06-18T10:45:13.981Z,55.38
2018-06-18T10:47:06.782Z,56.86
2018-06-18T10:48:06.704Z,55.47
2018-06-18T10:49:59.512Z,55.28
2018-06-18T10:50:59.453Z,56.74
2018-06-18T10:52:52.262Z,57.39
2018-06-18T10:53:52.189Z,56.61
2018-06-18T10:55:44.982Z,56.03
2018-06-18T10:56:44.909Z,56.90
2018-06-18T10:58:37.714Z,56.71
2018-06-18T10:59:37.644Z,56.39
2018-06-18T11:01:30.463Z,56.65
2018-06-18T11:02:30.393Z,56.56
2018-06-18T11:04:23.193Z,58.27
2018-06-18T11:05:23.117Z,58.34
2018-06-18T11:07:15.900Z,59.69
2018-06-18T11:08:15.846Z,59.69
2018-06-18T11:10:08.638Z,59.50
2018-06-18T11:11:08.556Z,59.69
2018-06-18T11:13:01.379Z,59.43
2018-06-18T11:14:01.309Z,60.62
2018-06-18T11:15:54.223Z,59.00
2018-06-18T11:16:54.158Z,58.81
2018-06-18T11:18:46.888Z,58.30
2018-06-18T11:19:46.783Z,59.27
2018-06-18T11:21:39.583Z,60.91
2018-06-18T11:22:39.526Z,61.40
2018-06-18T11:24:32.319Z,59.46
2018-06-18T11:25:32.261Z,58.30
2018-06-18T11:27:25.143Z,56.85
2018-06-18T11:28:25.067Z,60.46
2018-06-18T11:30:17.852Z,56.39
2018-06-18T11:31:17.837Z,57.36
2018-06-18T11:33:10.575Z,52.83
2018-06-18T11:34:10.509Z,52.90
2018-06-18T11:36:03.445Z,54.16
2018-06-18T11:37:03.386Z,53.75
2018-06-18T11:38:56.163Z,55.71
2018-06-18T11:39:56.114Z,55.32
2018-06-18T11:41:48.929Z,55.58
2018-06-18T11:42:48.832Z,56.85
2018-06-18T11:44:41.667Z,57.81
2018-06-18T11:45:41.604Z,54.88
2018-06-18T11:47:34.406Z,57.79
2018-06-18T11:48:34.348Z,56.52
2018-06-18T11:50:27.149Z,57.01
2018-06-18T11:51:27.082Z,58.47
2018-06-18T11:53:19.857Z,58.47
2018-06-18T11:54:19.838Z,58.07
2018-06-18T11:56:12.618Z,57.81
2018-06-18T11:57:12.525Z,56.26
2018-06-18T11:59:05.341Z,56.56
2018-06-18T12:00:05.323Z,55.10
2018-06-18T12:01:58.169Z,56.97
2018-06-18T12:02:58.026Z,56.00
2018-06-18T12:04:50.945Z,56.87
2018-06-18T12:05:50.848Z,55.22
2018-06-18T12:07:43.668Z,55.83
2018-06-18T12:08:43.595Z,54.74
2018-06-18T12:10:36.384Z,54.67
2018-06-18T12:11:36.319Z,55.22
2018-06-18T12:13:29.234Z,54.09
2018-06-18T12:14:29.174Z,52.80
2018-06-18T12:16:21.911Z,53.80
2018-06-18T12:17:21.836Z,54.58
2018-06-18T12:19:14.639Z,55.74
2018-06-18T12:20:14.565Z,53.12
2018-06-18T12:22:07.496Z,53.89
2018-06-18T12:23:07.380Z,53.31
2018-06-18T12:25:00.159Z,53.67
2018-06-18T12:26:00.100Z,54.13
2018-06-18T12:27:52.904Z,55.20
2018-06-18T12:28:52.840Z,56.62
2018-06-18T12:30:45.726Z,56.43
2018-06-18T12:31:45.562Z,58.65
2018-06-18T12:33:38.366Z,55.40
2018-06-18T12:34:38.291Z,55.76
2018-06-18T12:36:31.083Z,55.56
2018-06-18T12:37:31.019Z,56.14
2018-06-18T12:39:23.860Z,55.17
2018-06-18T12:40:23.746Z,56.04
2018-06-18T12:42:16.549Z,55.36
2018-06-18T12:43:16.487Z,55.85
2018-06-18T12:45:09.331Z,56.92
2018-06-18T12:46:09.256Z,55.07
2018-06-18T12:48:02.066Z,55.46
2018-06-18T12:49:01.994Z,55.46
2018-06-18T12:50:54.764Z,55.20
2018-06-18T12:51:54.717Z,53.43
2018-06-18T12:53:47.529Z,54.13
2018-06-18T12:54:47.472Z,53.07
2018-06-18T12:56:40.248Z,54.81
2018-06-18T12:57:40.170Z,54.52
2018-06-18T12:59:32.994Z,55.88
2018-06-18T13:00:32.916Z,55.49
2018-06-18T13:02:25.712Z,54.33
2018-06-18T13:03:25.703Z,55.30
2018-06-18T13:05:18.460Z,54.03
2018-06-18T13:06:18.384Z,55.90
2018-06-18T13:08:11.214Z,54.55
2018-06-18T13:09:11.150Z,54.26
2018-06-18T13:11:03.939Z,53.00
2018-06-18T13:12:03.870Z,54.55
2018-06-18T13:13:56.672Z,54.33
2018-06-18T13:14:56.604Z,54.55
2018-06-18T13:16:49.443Z,54.26
2018-06-18T13:17:49.374Z,54.45
2018-06-18T13:19:42.184Z,52.93
2018-06-18T13:20:42.095Z,54.64
2018-06-18T13:22:34.874Z,53.77
2018-06-18T13:23:34.802Z,54.55
2018-06-18T13:25:27.634Z,52.90
2018-06-18T13:26:27.554Z,54.48
2018-06-18T13:28:20.365Z,51.45
2018-06-18T13:29:20.290Z,53.39
2018-06-18T13:31:13.210Z,53.19
2018-06-18T13:32:13.135Z,52.80
2018-06-18T13:34:05.923Z,52.22
2018-06-18T13:35:05.897Z,51.67
2018-06-18T13:36:58.770Z,51.37
2018-06-18T13:37:58.616Z,52.15
2018-06-18T13:39:51.402Z,52.56
2018-06-18T13:40:51.335Z,51.18
2018-06-18T13:42:44.137Z,51.37
2018-06-18T13:43:44.074Z,53.29
2018-06-18T13:45:36.884Z,52.80
2018-06-18T13:46:36.817Z,52.32
2018-06-18T13:48:29.630Z,53.19
2018-06-18T13:49:29.562Z,52.80
2018-06-18T13:51:22.345Z,52.61
2018-06-18T13:52:22.277Z,52.90
2018-06-18T13:54:15.077Z,51.96
2018-06-18T13:55:15.019Z,51.64
2018-06-18T13:57:07.839Z,52.73
2018-06-18T13:58:07.835Z,51.67
2018-06-18T14:00:00.526Z,52.44
2018-06-18T14:01:00.461Z,51.67
2018-06-18T14:02:53.268Z,52.47
2018-06-18T14:03:53.208Z,52.37
2018-06-18T14:05:46.056Z,52.37
2018-06-18T14:06:45.982Z,52.83
2018-06-18T14:08:38.792Z,52.73
2018-06-18T14:09:38.734Z,53.02
2018-06-18T14:11:31.545Z,53.02
2018-06-18T14:12:31.448Z,51.67
2018-06-18T14:14:24.235Z,51.47
2018-06-18T14:15:24.171Z,50.99
2018-06-18T14:17:17.108Z,51.67
2018-06-18T14:18:17.036Z,51.18
2018-06-18T14:20:09.832Z,51.28
2018-06-18T14:21:09.773Z,51.86
2018-06-18T14:23:02.591Z,53.00
2018-06-18T14:24:02.529Z,54.09
2018-06-18T14:25:55.306Z,55.42
2018-06-18T14:26:55.244Z,52.03
2018-06-18T14:28:48.064Z,53.77
2018-06-18T14:29:47.986Z,54.64
2018-06-18T14:31:40.823Z,55.04
2018-06-18T14:32:40.726Z,53.77
2018-06-18T14:34:33.579Z,53.87
2018-06-18T14:35:33.570Z,53.09
2018-06-18T14:37:26.375Z,53.29
2018-06-18T14:38:26.280Z,53.00
2018-06-18T14:40:19.086Z,52.32
2018-06-18T14:41:19.028Z,54.55
2018-06-18T14:43:11.880Z,54.64
2018-06-18T14:44:11.800Z,53.77
2018-06-18T14:46:04.681Z,54.16
2018-06-18T14:47:04.529Z,53.77
2018-06-18T14:48:57.317Z,54.35
2018-06-18T14:49:57.239Z,54.94
2018-06-18T14:51:50.051Z,54.84
2018-06-18T14:52:49.980Z,53.67
2018-06-18T14:54:42.765Z,54.16
2018-06-18T14:55:42.691Z,53.94
2018-06-18T14:57:35.515Z,56.20
2018-06-18T14:58:35.454Z,54.16
2018-06-18T15:00:28.313Z,53.75
2018-06-18T15:01:28.246Z,53.36
2018-06-18T15:03:21.115Z,55.49
2018-06-18T15:04:21.012Z,55.98
2018-06-18T15:06:13.829Z,55.49
2018-06-18T15:07:13.744Z,56.26
2018-06-18T15:09:06.672Z,56.46
2018-06-18T15:10:06.539Z,55.49
2018-06-18T15:11:59.328Z,54.52
2018-06-18T15:12:59.293Z,53.75
2018-06-18T15:14:52.087Z,55.30
2018-06-18T15:15:51.985Z,54.52
2018-06-18T15:17:44.767Z,56.56
2018-06-18T15:18:44.711Z,56.46
2018-06-18T15:20:37.564Z,55.49
2018-06-18T15:21:37.451Z,56.75
2018-06-18T15:23:30.273Z,54.21
2018-06-18T15:24:30.205Z,55.36
2018-06-18T15:26:23.028Z,55.00
2018-06-18T15:27:22.966Z,55.17
2018-06-18T15:29:15.737Z,55.36
2018-06-18T15:30:15.663Z,55.49
2018-06-18T15:32:08.512Z,55.98
2018-06-18T15:33:08.379Z,55.98
2018-06-18T15:35:01.192Z,55.10
2018-06-18T15:36:01.116Z,54.81
2018-06-18T15:37:54.799Z,55.10
2018-06-18T15:38:54.747Z,55.98
2018-06-18T15:40:47.559Z,56.56
2018-06-18T15:41:47.488Z,56.16
2018-06-18T15:43:40.433Z,56.94
2018-06-18T15:44:40.395Z,55.00
2018-06-18T15:46:33.125Z,54.62
2018-06-18T15:47:33.053Z,55.78
2018-06-18T15:49:25.859Z,55.20
2018-06-18T15:50:25.826Z,56.75
2018-06-18T15:52:18.727Z,55.00
2018-06-18T15:53:18.535Z,56.85
2018-06-18T15:55:11.396Z,54.52
2018-06-18T15:56:11.336Z,55.20
2018-06-18T15:58:04.115Z,55.00
2018-06-18T15:59:04.045Z,56.46
2018-06-18T16:00:56.849Z,57.04
2018-06-18T16:01:56.776Z,56.65
2018-06-18T16:03:49.587Z,56.85
2018-06-18T16:04:49.528Z,55.30
2018-06-18T16:06:42.321Z,56.85
2018-06-18T16:07:42.251Z,56.36
2018-06-18T16:09:35.139Z,55.68
2018-06-18T16:10:35.080Z,56.75
2018-06-18T16:12:27.842Z,56.85
2018-06-18T16:13:27.770Z,55.49
2018-06-18T16:15:20.564Z,57.23
2018-06-18T16:16:20.501Z,55.78
2018-06-18T16:18:13.406Z,55.98
2018-06-18T16:19:13.339Z,57.33
2018-06-18T16:21:06.129Z,55.68
2018-06-18T16:22:06.048Z,56.16
2018-06-18T16:23:58.858Z,55.68
2018-06-18T16:24:58.797Z,56.26
2018-06-18T16:26:51.599Z,56.75
2018-06-18T16:27:51.518Z,56.16
2018-06-18T16:29:44.301Z,56.65
2018-06-18T16:30:44.244Z,55.58
2018-06-18T16:32:37.079Z,56.65
2018-06-18T16:33:37.012Z,56.36
2018-06-18T16:35:29.819Z,55.94
2018-06-18T16:36:29.760Z,57.30
2018-06-18T16:38:22.601Z,57.40
2018-06-18T16:39:22.516Z,57.11
2018-06-18T16:41:15.300Z,56.14
2018-06-18T16:42:15.286Z,55.66
2018-06-18T16:44:08.040Z,57.30
2018-06-18T16:45:07.978Z,57.69
2018-06-18T16:47:00.810Z,57.69
2018-06-18T16:48:00.744Z,56.82
2018-06-18T16:49:53.541Z,57.30
2018-06-18T16:50:53.503Z,58.44
2018-06-18T16:52:46.291Z,58.47
2018-06-18T16:53:46.214Z,58.72
2018-06-18T16:55:38.998Z,57.37
2018-06-18T16:56:38.939Z,58.34
2018-06-18T16:58:31.739Z,58.24
2018-06-18T16:59:31.656Z,58.53
2018-06-18T17:01:24.498Z,58.82
2018-06-18T17:02:24.389Z,58.72
2018-06-18T17:04:17.286Z,58.72
2018-06-18T17:05:17.341Z,58.82
2018-06-18T17:07:10.025Z,58.92
2018-06-18T17:08:09.948Z,59.40
2018-06-18T17:10:02.729Z,59.59
2018-06-18T17:11:02.671Z,59.63
2018-06-18T17:12:55.561Z,59.89
2018-06-18T17:13:55.387Z,59.43
2018-06-18T17:15:48.179Z,58.82
2018-06-18T17:16:48.117Z,58.95
2018-06-18T17:18:40.948Z,60.66
2018-06-18T17:19:40.868Z,59.63
2018-06-18T17:21:33.648Z,61.05
2018-06-18T17:22:33.589Z,61.24
2018-06-18T17:24:26.398Z,60.98
2018-06-18T17:25:26.342Z,59.69
2018-06-18T17:27:19.165Z,61.85
2018-06-18T17:28:19.131Z,62.11
2018-06-18T17:30:11.916Z,61.05
2018-06-18T17:31:11.831Z,60.47
2018-06-18T17:33:04.636Z,61.15
2018-06-18T17:34:04.568Z,62.69
2018-06-18T17:35:57.343Z,62.59
2018-06-18T17:36:57.293Z,61.53
2018-06-18T17:38:50.135Z,63.08
2018-06-18T17:39:50.017Z,62.88
2018-06-18T17:41:42.848Z,62.40
2018-06-18T17:42:42.760Z,64.43
2018-06-18T17:44:35.810Z,63.18
2018-06-18T17:45:35.474Z,62.56
2018-06-18T17:47:28.469Z,63.14
2018-06-18T17:48:28.183Z,63.92
2018-06-18T17:50:20.999Z,63.73
2018-06-18T17:51:20.899Z,63.43
2018-06-18T17:53:13.755Z,64.79
2018-06-18T17:54:13.764Z,63.53
2018-06-18T17:56:06.478Z,64.31
2018-06-18T17:57:06.586Z,64.01
2018-06-18T17:58:59.224Z,64.59
2018-06-18T17:59:59.160Z,66.08
2018-06-18T18:01:52.117Z,64.89
2018-06-18T18:02:51.971Z,64.89
2018-06-18T18:04:44.805Z,64.11
2018-06-18T18:05:44.768Z,64.31
2018-06-18T18:07:37.552Z,64.59
2018-06-18T18:08:37.488Z,65.37
2018-06-18T18:10:30.330Z,65.47
2018-06-18T18:11:30.207Z,64.98
2018-06-18T18:13:23.013Z,64.98
2018-06-18T18:14:22.955Z,64.69
2018-06-18T18:16:15.757Z,65.08
2018-06-18T18:17:15.692Z,65.47
2018-06-18T18:19:08.512Z,65.43
2018-06-18T18:20:08.438Z,64.50
2018-06-18T18:22:01.269Z,66.14
2018-06-18T18:23:01.213Z,64.89
2018-06-18T18:24:53.997Z,64.79
2018-06-18T18:25:53.931Z,65.56
2018-06-18T18:27:46.723Z,65.05
2018-06-18T18:28:46.738Z,66.72
2018-06-18T18:30:39.504Z,65.43
2018-06-18T18:31:39.399Z,65.82